createdAt,value
2023-04-18T00:01:22.412Z,52.84
2023-04-18T00:03:50.678Z,52.21
2023-04-18T00:06:20.000Z,53.53
2023-04-18T00:08:47.736Z,52.64
2023-04-18T00:11:17.425Z,52.43
2023-04-18T00:13:48.320Z,52.93
2023-04-18T00:16:17.735Z,52.68
2023-04-18T00:18:45.466Z,52.40
2023-04-18T00:21:14.111Z,53.04
2023-04-18T00:24:01.769Z,52.90
2023-04-18T00:26:31.313Z,53.60
2023-04-18T00:29:19.969Z,54.53
2023-04-18T00:32:07.446Z,53.23
2023-04-18T00:34:47.550Z,53.25
2023-04-18T00:40:24.052Z,52.91
2023-04-18T00:43:03.636Z,53.45
2023-04-18T00:46:01.746Z,54.58
2023-04-18T00:48:31.389Z,54.09
2023-04-18T00:51:09.277Z,53.88
2023-04-18T00:53:36.527Z,52.63
2023-04-18T00:56:04.805Z,53.77
2023-04-18T00:58:33.371Z,54.44
2023-04-18T01:01:00.799Z,53.25
2023-04-18T01:03:28.258Z,52.63
2023-04-18T01:05:57.886Z,53.20
2023-04-18T01:08:25.696Z,53.15
2023-04-18T01:10:53.372Z,54.00
2023-04-18T01:13:21.055Z,54.72
2023-04-18T01:15:49.213Z,52.81
2023-04-18T01:18:17.592Z,53.10
2023-04-18T01:20:47.711Z,53.85
2023-04-18T01:23:15.465Z,52.52
2023-04-18T01:25:53.551Z,52.63
2023-04-18T01:28:22.979Z,53.37
2023-04-18T01:30:50.328Z,53.52
2023-04-18T01:33:18.323Z,53.88
2023-04-18T01:35:47.151Z,54.10
2023-04-18T01:38:14.380Z,52.97
2023-04-18T01:40:44.392Z,52.67
2023-04-18T01:43:11.851Z,53.57
2023-04-18T01:45:39.994Z,53.67
2023-04-18T01:48:09.160Z,54.74
2023-04-18T01:50:37.463Z,55.31
2023-04-18T01:53:06.086Z,55.70
2023-04-18T01:55:34.689Z,55.63
2023-04-18T01:58:02.225Z,56.55
2023-04-18T02:00:30.976Z,56.28
2023-04-18T02:02:59.660Z,56.62
2023-04-18T02:05:51.253Z,56.83
2023-04-18T02:08:21.363Z,55.94
2023-04-18T02:10:49.578Z,55.48
2023-04-18T02:13:17.331Z,53.30
2023-04-18T02:15:46.056Z,53.56
2023-04-18T02:18:15.981Z,54.80
2023-04-18T02:20:43.177Z,55.51
2023-04-18T02:23:10.942Z,54.01
2023-04-18T02:25:38.612Z,55.33
2023-04-18T02:28:06.330Z,54.88
2023-04-18T02:31:15.765Z,54.77
2023-04-18T02:33:47.103Z,53.75
2023-04-18T02:36:15.523Z,54.33
2023-04-18T02:38:43.079Z,55.38
2023-04-18T02:41:15.208Z,53.32
2023-04-18T02:43:45.184Z,53.53
2023-04-18T02:46:14.159Z,53.64
2023-04-18T02:48:42.352Z,53.54
2023-04-18T02:51:12.378Z,55.12
2023-04-18T02:53:41.499Z,54.17
2023-04-18T02:56:09.397Z,53.93
2023-04-18T02:58:38.157Z,54.22
2023-04-18T03:01:06.563Z,53.19
2023-04-18T03:03:37.873Z,53.72
2023-04-18T03:06:07.553Z,54.71
2023-04-18T03:08:35.676Z,53.70
2023-04-18T03:11:03.411Z,53.41
2023-04-18T03:13:32.018Z,55.02
2023-04-18T03:16:02.516Z,55.08
2023-04-18T03:18:30.755Z,55.55
2023-04-18T03:20:58.624Z,55.25
2023-04-18T03:23:37.534Z,55.01
2023-04-18T03:26:07.389Z,54.99
2023-04-18T03:28:36.628Z,56.07
2023-04-18T03:31:05.472Z,56.30
2023-04-18T03:33:35.340Z,56.52
2023-04-18T03:36:05.632Z,56.48
2023-04-18T03:38:33.272Z,56.76
2023-04-18T03:41:02.476Z,56.97
2023-04-18T03:43:31.157Z,58.11
2023-04-18T03:45:59.314Z,58.68
2023-04-18T03:48:29.215Z,58.57
2023-04-18T03:50:59.122Z,58.68
2023-04-18T03:53:51.347Z,58.81
2023-04-18T03:56:21.587Z,59.10
2023-04-18T03:58:53.023Z,59.99
2023-04-18T04:01:21.931Z,59.31
2023-04-18T04:03:52.867Z,58.92
2023-04-18T04:06:25.359Z,59.13
2023-04-18T04:08:54.470Z,58.81
2023-04-18T04:11:24.569Z,59.76
2023-04-18T04:13:53.414Z,60.02
2023-04-18T04:16:29.499Z,57.83
2023-04-18T04:18:58.678Z,55.38
2023-04-18T04:21:31.425Z,56.25
2023-04-18T04:24:01.466Z,55.72
2023-04-18T04:26:31.763Z,56.29
2023-04-18T04:29:02.333Z,55.95
2023-04-18T04:31:39.561Z,55.34
2023-04-18T04:34:09.128Z,56.00
2023-04-18T04:36:37.256Z,55.33
2023-04-18T04:39:06.870Z,54.95
2023-04-18T04:41:42.023Z,55.95
2023-04-18T04:44:18.559Z,55.95
2023-04-18T04:46:55.932Z,55.97
2023-04-18T04:49:27.523Z,54.99
2023-04-18T04:51:56.400Z,54.46
2023-04-18T04:54:28.423Z,55.34
2023-04-18T04:56:58.216Z,55.40
2023-04-18T04:59:27.792Z,55.31
2023-04-18T05:01:57.458Z,54.19
2023-04-18T05:04:27.898Z,55.53
2023-04-18T05:07:01.432Z,55.00
2023-04-18T05:09:30.449Z,54.69
2023-04-18T05:11:58.722Z,55.39
2023-04-18T05:14:28.680Z,54.61
2023-04-18T05:16:57.462Z,56.52
2023-04-18T05:19:25.064Z,57.22
2023-04-18T05:21:53.420Z,57.10
2023-04-18T05:24:23.154Z,55.16
2023-04-18T05:26:56.041Z,54.83
2023-04-18T05:29:24.314Z,55.02
2023-04-18T05:31:51.814Z,56.46
2023-04-18T05:34:21.457Z,56.71
2023-04-18T05:36:56.432Z,57.21
2023-04-18T05:39:24.663Z,56.22
2023-04-18T05:41:56.998Z,57.39
2023-04-18T05:44:30.557Z,59.11
2023-04-18T05:46:58.912Z,59.32
2023-04-18T05:50:09.058Z,59.20
2023-04-18T05:52:44.936Z,58.64
2023-04-18T05:57:54.013Z,59.49
2023-04-18T06:00:22.455Z,59.58
2023-04-18T06:02:51.443Z,59.56
2023-04-18T06:05:19.935Z,61.37
2023-04-18T06:07:48.277Z,60.72
2023-04-18T06:10:20.433Z,61.99
2023-04-18T06:12:49.990Z,60.67
2023-04-18T06:15:19.163Z,60.26
2023-04-18T06:17:48.765Z,60.88
2023-04-18T06:20:23.468Z,61.68
2023-04-18T06:22:51.147Z,60.25
2023-04-18T06:25:24.421Z,60.43
2023-04-18T06:27:56.759Z,59.71
2023-04-18T06:30:32.575Z,59.93
2023-04-18T06:33:04.205Z,58.56
2023-04-18T06:35:33.025Z,58.71
2023-04-18T06:38:08.360Z,53.81
2023-04-18T06:40:43.525Z,51.42
2023-04-18T06:43:15.805Z,53.11
2023-04-18T06:45:45.565Z,53.90
2023-04-18T06:48:13.550Z,52.60
2023-04-18T06:50:44.097Z,51.96
2023-04-18T06:53:13.078Z,51.26
2023-04-18T06:55:41.053Z,52.54
2023-04-18T06:58:10.137Z,52.13
2023-04-18T07:00:39.008Z,50.13
2023-04-18T07:03:11.276Z,51.49
2023-04-18T07:05:48.396Z,49.78
2023-04-18T07:08:16.662Z,52.08
2023-04-18T07:10:44.957Z,51.78
2023-04-18T07:13:12.798Z,51.37
2023-04-18T07:15:44.804Z,50.94
2023-04-18T07:18:20.660Z,51.89
2023-04-18T07:20:58.092Z,50.64
2023-04-18T07:23:26.793Z,48.06
2023-04-18T07:26:02.714Z,50.05
2023-04-18T07:28:38.891Z,50.22
2023-04-18T07:31:11.698Z,50.01
2023-04-18T07:33:43.787Z,51.44
2023-04-18T07:36:16.443Z,48.97
2023-04-18T07:38:47.482Z,50.71
2023-04-18T07:41:15.075Z,49.92
2023-04-18T07:43:45.060Z,49.14
2023-04-18T07:46:17.959Z,51.20
2023-04-18T07:50:04.071Z,47.71
2023-04-18T07:53:08.267Z,49.81
2023-04-18T07:55:47.109Z,49.80
2023-04-18T07:58:28.458Z,48.18
2023-04-18T08:01:14.375Z,50.40
2023-04-18T08:04:06.585Z,49.85
2023-04-18T08:06:48.957Z,49.03
2023-04-18T08:09:29.844Z,51.03
2023-04-18T08:12:25.446Z,48.49
2023-04-18T08:15:09.000Z,48.28
2023-04-18T08:17:53.057Z,48.53
2023-04-18T08:20:27.083Z,49.09
2023-04-18T08:23:11.141Z,49.13
2023-04-18T08:26:00.918Z,50.19
2023-04-18T08:28:30.928Z,47.00
2023-04-18T08:31:19.764Z,48.17
2023-04-18T08:34:17.156Z,49.58
2023-04-18T08:37:11.457Z,48.72
2023-04-18T08:40:07.477Z,48.57
2023-04-18T08:42:50.708Z,48.16
2023-04-18T08:45:34.497Z,46.46
2023-04-18T08:48:18.477Z,46.97
2023-04-18T08:51:02.537Z,46.72
2023-04-18T08:54:04.722Z,47.41
2023-04-18T08:56:33.229Z,47.20
2023-04-18T08:59:46.679Z,45.84
2023-04-18T09:02:47.462Z,44.77
2023-04-18T09:05:30.711Z,46.13
2023-04-18T09:08:29.475Z,44.30
2023-04-18T09:11:29.235Z,43.84
2023-04-18T09:14:27.454Z,42.84
2023-04-18T09:17:07.222Z,42.79
2023-04-18T09:20:10.411Z,43.63
2023-04-18T09:22:52.932Z,45.35
2023-04-18T09:25:44.774Z,42.53
2023-04-18T09:28:29.333Z,42.78
2023-04-18T09:31:15.883Z,43.51
2023-04-18T09:33:57.120Z,41.26
2023-04-18T09:36:41.149Z,42.31
2023-04-18T09:39:38.905Z,42.01
2023-04-18T09:42:22.038Z,43.07
2023-04-18T09:45:17.477Z,43.39
2023-04-18T09:47:57.516Z,43.84
2023-04-18T09:50:40.631Z,43.54
2023-04-18T09:53:34.680Z,43.50
2023-04-18T09:56:26.456Z,43.04
2023-04-18T09:59:29.842Z,42.68
2023-04-18T10:02:16.512Z,43.08
2023-04-18T10:04:59.834Z,43.77
2023-04-18T10:07:53.220Z,41.98
2023-04-18T10:10:38.914Z,39.82
2023-04-18T10:13:20.672Z,40.45
2023-04-18T10:16:04.524Z,42.17
2023-04-18T10:18:47.717Z,40.34
2023-04-18T10:21:31.556Z,40.11
2023-04-18T10:24:46.248Z,41.25
2023-04-18T10:30:51.333Z,40.00
2023-04-18T10:33:41.015Z,38.95
2023-04-18T10:36:24.036Z,39.78
2023-04-18T10:39:26.027Z,40.74
2023-04-18T10:42:09.437Z,41.20
2023-04-18T10:45:17.263Z,38.59
2023-04-18T10:48:22.453Z,39.79
2023-04-18T10:51:18.322Z,40.73
2023-04-18T10:54:02.455Z,40.10
2023-04-18T10:56:55.415Z,40.63
2023-04-18T10:59:59.818Z,39.09
2023-04-18T11:02:56.366Z,39.81
2023-04-18T11:05:39.932Z,39.36
2023-04-18T11:08:23.848Z,40.27
2023-04-18T11:11:18.453Z,39.81
2023-04-18T11:13:58.256Z,41.38
2023-04-18T11:16:54.896Z,41.56
2023-04-18T11:19:36.336Z,40.36
2023-04-18T11:22:29.291Z,40.53
2023-04-18T11:25:18.558Z,40.31
2023-04-18T11:28:13.934Z,40.57
2023-04-18T11:30:52.743Z,39.25
2023-04-18T11:33:48.642Z,40.63
2023-04-18T11:36:35.273Z,38.59
2023-04-18T11:43:03.538Z,38.13
2023-04-18T11:45:31.422Z,37.02
2023-04-18T11:48:01.026Z,37.33
2023-04-18T11:50:29.744Z,38.21
2023-04-18T11:52:58.408Z,39.09
2023-04-18T11:55:27.373Z,39.52
2023-04-18T11:57:57.755Z,39.03
2023-04-18T12:00:32.865Z,39.00
2023-04-18T12:03:05.953Z,37.89
2023-04-18T12:05:39.890Z,38.27
2023-04-18T12:08:13.487Z,39.11
2023-04-18T12:10:48.393Z,37.33
2023-04-18T12:13:20.442Z,38.50
2023-04-18T12:15:49.136Z,36.52
2023-04-18T12:18:22.114Z,34.40
2023-04-18T12:20:54.720Z,37.19
2023-04-18T12:23:37.576Z,39.14
2023-04-18T12:26:08.659Z,37.59
2023-04-18T12:28:36.880Z,37.46
2023-04-18T12:31:12.493Z,37.12
2023-04-18T12:33:48.645Z,37.06
2023-04-18T12:36:23.581Z,36.56
2023-04-18T12:38:54.725Z,36.73
2023-04-18T12:41:27.154Z,37.95
2023-04-18T12:43:58.767Z,35.88
2023-04-18T12:46:34.127Z,36.47
2023-04-18T12:49:02.341Z,36.93
2023-04-18T12:51:30.124Z,37.50
2023-04-18T12:54:02.211Z,36.87
2023-04-18T12:56:36.466Z,35.82
2023-04-18T12:59:05.382Z,37.41
2023-04-18T13:01:44.840Z,34.81
2023-04-18T13:04:14.093Z,33.84
2023-04-18T13:06:46.565Z,36.16
2023-04-18T13:09:18.029Z,34.15
2023-04-18T13:11:55.426Z,34.05
2023-04-18T13:14:24.890Z,34.85
2023-04-18T13:16:56.697Z,34.26
2023-04-18T13:19:29.842Z,34.45
2023-04-18T13:22:01.727Z,34.19
2023-04-18T13:24:31.941Z,33.64
2023-04-18T13:27:02.501Z,33.73
2023-04-18T13:29:38.706Z,32.67
2023-04-18T13:32:11.759Z,34.26
2023-04-18T13:34:42.777Z,33.11
2023-04-18T13:37:12.739Z,32.94
2023-04-18T13:39:45.381Z,31.53
2023-04-18T13:42:15.973Z,31.82
2023-04-18T13:44:44.799Z,31.15
2023-04-18T13:47:13.462Z,30.95
2023-04-18T13:49:41.474Z,31.13
2023-04-18T13:52:10.926Z,30.44
2023-04-18T13:57:47.499Z,29.85
2023-04-18T14:00:25.321Z,29.25
2023-04-18T14:02:55.617Z,29.91
2023-04-18T14:05:31.311Z,28.90
2023-04-18T14:08:03.945Z,27.10
2023-04-18T14:10:32.285Z,28.73
2023-04-18T14:13:09.417Z,28.56
2023-04-18T14:15:48.694Z,28.50
2023-04-18T14:18:21.874Z,28.92
2023-04-18T14:20:54.591Z,28.99
2023-04-18T14:23:26.743Z,28.63
2023-04-18T14:26:00.707Z,29.48
2023-04-18T14:28:35.007Z,28.58
2023-04-18T14:31:12.204Z,27.71
2023-04-18T14:33:40.686Z,28.13
2023-04-18T14:36:17.530Z,27.44
2023-04-18T14:38:53.475Z,26.97
2023-04-18T14:41:34.203Z,26.74
2023-04-18T14:44:07.511Z,26.49
2023-04-18T14:46:43.508Z,26.89
2023-04-18T14:49:12.728Z,25.84
2023-04-18T14:51:46.524Z,26.54
2023-04-18T14:56:52.738Z,26.09
2023-04-18T14:59:38.559Z,25.70
2023-04-18T15:02:07.772Z,24.41
2023-04-18T15:04:37.601Z,25.72
2023-04-18T15:07:10.173Z,24.41
2023-04-18T15:09:40.635Z,25.44
2023-04-18T15:14:53.420Z,24.02
2023-04-18T15:17:23.065Z,25.59
2023-04-18T15:19:57.492Z,25.27
2023-04-18T15:22:33.448Z,26.06
2023-04-18T15:25:01.774Z,26.32
2023-04-18T15:27:32.728Z,26.54
2023-04-18T15:30:06.606Z,26.42
2023-04-18T15:32:37.164Z,25.96
2023-04-18T15:38:33.910Z,26.07
2023-04-18T15:44:58.571Z,25.03
2023-04-18T15:47:30.114Z,25.25
2023-04-18T15:50:06.631Z,25.25
2023-04-18T15:52:38.077Z,25.96
2023-04-18T15:55:14.183Z,27.25
2023-04-18T15:57:50.670Z,26.77
2023-04-18T16:00:28.915Z,26.88
2023-04-18T16:03:04.609Z,27.02
2023-04-18T16:08:16.159Z,26.39
2023-04-18T16:10:44.743Z,27.30
2023-04-18T16:13:16.828Z,28.38
2023-04-18T16:15:48.535Z,28.57
2023-04-18T16:18:16.648Z,28.31
2023-04-18T16:23:37.075Z,29.05
2023-04-18T16:26:15.454Z,28.83
2023-04-18T16:28:46.458Z,29.34
2023-04-18T16:31:17.660Z,29.09
2023-04-18T16:34:01.148Z,28.30
2023-04-18T16:39:19.548Z,28.99
2023-04-18T16:41:49.596Z,28.74
2023-04-18T16:44:21.095Z,29.58
2023-04-18T16:47:03.598Z,29.25
2023-04-18T16:49:45.682Z,29.16
2023-04-18T16:52:20.219Z,29.26
2023-04-18T16:54:52.828Z,29.15
2023-04-18T16:57:27.676Z,28.76
2023-04-18T16:59:58.521Z,29.86
2023-04-18T17:02:26.489Z,29.94
2023-04-18T17:05:01.762Z,29.35
2023-04-18T17:07:40.474Z,31.27
2023-04-18T17:10:10.165Z,30.09
2023-04-18T17:18:00.669Z,29.75
2023-04-18T17:20:28.810Z,29.82
2023-04-18T17:25:42.853Z,30.44
2023-04-18T17:30:52.834Z,30.69
2023-04-18T17:33:24.958Z,31.52
2023-04-18T17:35:58.490Z,31.31
2023-04-18T17:38:37.475Z,32.10
2023-04-18T17:41:14.004Z,31.09
2023-04-18T17:43:46.099Z,32.49
2023-04-18T17:46:17.082Z,33.88
2023-04-18T17:51:30.476Z,35.33
2023-04-18T17:54:11.506Z,35.67
2023-04-18T17:56:47.463Z,35.00
2023-04-18T17:59:21.041Z,35.39
2023-04-18T18:01:56.925Z,36.85
2023-04-18T18:04:28.618Z,38.08
2023-04-18T18:15:14.699Z,40.72
2023-04-18T18:17:49.878Z,40.07
2023-04-18T18:20:26.847Z,40.93
2023-04-18T18:22:57.532Z,41.00
2023-04-18T18:25:31.744Z,41.15
2023-04-18T18:28:02.409Z,41.84
2023-04-18T18:30:38.651Z,41.94
2023-04-18T18:33:10.206Z,42.29
2023-04-18T18:35:59.827Z,41.92
2023-04-18T18:41:23.602Z,42.09
2023-04-18T18:43:59.583Z,42.17
2023-04-18T18:46:35.512Z,42.68
2023-04-18T18:49:08.229Z,43.64
2023-04-18T18:51:47.987Z,43.46
2023-04-18T18:54:28.353Z,44.39
2023-04-18T18:57:04.531Z,44.70
2023-04-18T18:59:32.376Z,45.21
2023-04-18T19:02:11.871Z,44.86
2023-04-18T19:04:50.848Z,44.96
2023-04-18T19:07:27.480Z,44.56
2023-04-18T19:10:03.670Z,45.40
2023-04-18T19:12:35.149Z,44.78
2023-04-18T19:20:18.681Z,44.86
2023-04-18T19:22:49.768Z,44.79
2023-04-18T19:25:24.179Z,45.17
2023-04-18T19:27:57.527Z,44.56
2023-04-18T19:30:35.845Z,46.18
2023-04-18T19:33:07.035Z,45.74
2023-04-18T19:35:37.958Z,46.18
2023-04-18T19:38:13.530Z,45.90
2023-04-18T19:40:51.687Z,46.81
2023-04-18T19:43:34.501Z,46.26
2023-04-18T19:46:04.653Z,47.56
2023-04-18T19:48:33.222Z,46.59
2023-04-18T19:51:04.064Z,47.21
2023-04-18T19:53:38.266Z,48.20
2023-04-18T19:56:07.015Z,47.71
2023-04-18T19:58:48.977Z,47.17
2023-04-18T20:01:25.139Z,47.92
2023-04-18T20:04:01.033Z,47.37
2023-04-18T20:06:44.478Z,47.29
2023-04-18T20:09:17.000Z,46.77
2023-04-18T20:11:49.328Z,46.43
2023-04-18T20:14:18.957Z,47.46
2023-04-18T20:16:51.525Z,47.58
2023-04-18T20:19:25.768Z,47.92
2023-04-18T20:24:39.554Z,48.19
2023-04-18T20:27:07.491Z,47.54
2023-04-18T20:29:36.547Z,49.24
2023-04-18T20:32:11.570Z,48.78
2023-04-18T20:34:51.647Z,49.33
2023-04-18T20:37:24.695Z,49.09
2023-04-18T20:39:58.915Z,49.37
2023-04-18T20:42:34.803Z,49.40
2023-04-18T20:45:06.141Z,49.66
2023-04-18T20:47:35.705Z,49.15
2023-04-18T20:50:10.180Z,49.53
2023-04-18T20:52:42.892Z,48.66
2023-04-18T20:57:53.539Z,49.24
2023-04-18T21:00:23.053Z,50.00
2023-04-18T21:02:52.842Z,50.55
2023-04-18T21:05:23.882Z,50.63
2023-04-18T21:07:54.942Z,49.07
2023-04-18T21:10:23.995Z,50.27
2023-04-18T21:12:52.683Z,49.49
2023-04-18T21:15:24.715Z,48.75
2023-04-18T21:17:57.169Z,48.50
2023-04-18T21:20:27.128Z,47.88
2023-04-18T21:22:57.681Z,47.55
2023-04-18T21:25:27.501Z,46.05
2023-04-18T21:27:55.036Z,47.04
2023-04-18T21:30:22.964Z,46.51
2023-04-18T21:33:04.600Z,45.34
2023-04-18T21:35:38.989Z,45.40
2023-04-18T21:38:06.914Z,45.71
2023-04-18T21:40:34.345Z,46.24
2023-04-18T21:43:02.157Z,46.61
2023-04-18T21:45:36.892Z,45.28
2023-04-18T21:48:07.700Z,45.48
2023-04-18T21:50:36.303Z,45.23
2023-04-18T21:53:03.997Z,44.54
2023-04-18T21:55:31.303Z,45.41
2023-04-18T21:58:04.594Z,46.75
2023-04-18T22:00:36.645Z,46.51
2023-04-18T22:03:07.306Z,46.78
2023-04-18T22:05:34.996Z,46.92
2023-04-18T22:08:03.066Z,46.80
2023-04-18T22:10:31.668Z,46.09
2023-04-18T22:13:05.486Z,46.09
2023-04-18T22:15:34.442Z,46.81
2023-04-18T22:18:04.800Z,46.82
2023-04-18T22:20:33.767Z,47.01
2023-04-18T22:23:07.086Z,46.78
2023-04-18T22:25:34.836Z,46.90
2023-04-18T22:28:08.237Z,45.98
2023-04-18T22:30:36.210Z,46.66
2023-04-18T22:33:04.805Z,46.99
2023-04-18T22:35:32.512Z,45.93
2023-04-18T22:38:00.535Z,46.08
2023-04-18T22:40:27.885Z,46.51
2023-04-18T22:42:56.108Z,44.91
2023-04-18T22:45:24.390Z,44.69
2023-04-18T22:47:52.551Z,44.68
2023-04-18T22:50:21.511Z,44.88
2023-04-18T22:52:49.202Z,44.73
2023-04-18T22:55:16.894Z,43.51
2023-04-18T22:57:45.339Z,43.73
2023-04-18T23:00:13.833Z,44.32
2023-04-18T23:02:42.678Z,43.77
2023-04-18T23:05:16.537Z,44.56
2023-04-18T23:07:44.255Z,44.66
2023-04-18T23:10:11.902Z,43.52
2023-04-18T23:12:39.479Z,44.98
2023-04-18T23:15:07.618Z,43.86
2023-04-18T23:17:35.034Z,43.64
2023-04-18T23:20:07.647Z,43.24
2023-04-18T23:22:35.292Z,43.62
2023-04-18T23:25:06.717Z,44.16
2023-04-18T23:27:34.491Z,44.19
2023-04-18T23:30:02.632Z,44.45
2023-04-18T23:32:29.869Z,43.98
2023-04-18T23:34:57.720Z,45.03
2023-04-18T23:37:25.826Z,44.55
2023-04-18T23:39:53.701Z,45.16
2023-04-18T23:42:21.367Z,46.05
2023-04-18T23:44:50.391Z,45.56
2023-04-18T23:47:19.102Z,46.16
2023-04-18T23:49:47.144Z,46.23
2023-04-18T23:52:15.296Z,46.83
2023-04-18T23:54:42.528Z,45.77
2023-04-18T23:57:10.378Z,45.91
2023-04-18T23:59:38.118Z,46.70
